createdAt,value
2019-02-20T00:00:00.400Z,26.48
2019-02-20T00:05:02.593Z,23.02
2019-02-20T00:10:04.092Z,25.80
2019-02-20T00:15:06.382Z,20.12
2019-02-20T00:20:09.771Z,26.27
2019-02-20T00:25:11.071Z,25.08
2019-02-20T00:30:12.721Z,26.48
2019-02-20T00:35:14.152Z,24.35
2019-02-20T00:40:18.220Z,24.52
2019-02-20T00:45:24.588Z,25.75
2019-02-20T00:50:28.986Z,28.70
2019-02-20T00:55:30.737Z,32.55
2019-02-20T01:00:34.610Z,25.45
2019-02-20T01:05:37.927Z,32.03
2019-02-20T01:10:39.371Z,29.42
2019-02-20T01:15:40.765Z,27.32
2019-02-20T01:20:43.512Z,25.08
2019-02-20T01:25:45.092Z,30.88
2019-02-20T01:30:46.528Z,25.72
2019-02-20T01:35:47.985Z,29.27
2019-02-20T01:40:49.406Z,31.35
2019-02-20T01:45:50.882Z,25.30
2019-02-20T01:50:52.442Z,29.10
2019-02-20T01:55:53.771Z,29.90
2019-02-20T02:00:55.127Z,26.17
2019-02-20T02:05:56.578Z,32.75
2019-02-20T02:10:57.936Z,28.32
2019-02-20T02:15:59.263Z,27.32
2019-02-20T02:21:01.054Z,21.85
2019-02-20T02:26:10.642Z,27.07
2019-02-20T02:31:06.188Z,25.35
2019-02-20T02:36:07.655Z,24.05
2019-02-20T02:41:09.069Z,24.30
2019-02-20T02:46:10.787Z,26.77
2019-02-20T02:51:12.232Z,26.90
2019-02-20T02:56:13.736Z,31.12
2019-02-20T03:01:16.228Z,26.10
2019-02-20T03:06:17.680Z,20.95
2019-02-20T03:11:19.242Z,29.77
2019-02-20T03:16:20.710Z,27.27
2019-02-20T03:21:22.132Z,25.88
2019-02-20T03:26:23.663Z,26.17
2019-02-20T03:31:25.529Z,24.77
2019-02-20T03:36:27.017Z,26.27
2019-02-20T03:41:28.372Z,29.50
2019-02-20T03:46:29.678Z,29.50
2019-02-20T03:51:31.178Z,24.95
2019-02-20T03:56:32.756Z,26.62
2019-02-20T04:01:34.433Z,29.90
2019-02-20T04:06:36.296Z,26.68
2019-02-20T04:11:37.739Z,27.98
2019-02-20T04:16:39.231Z,32.65
2019-02-20T04:21:40.662Z,25.95
2019-02-20T04:26:42.024Z,26.02
2019-02-20T04:31:43.548Z,34.95
2019-02-20T04:36:46.521Z,24.10
2019-02-20T04:41:47.869Z,26.82
2019-02-20T04:46:49.300Z,29.30
2019-02-20T04:51:50.792Z,23.00
2019-02-20T04:56:52.256Z,27.13
2019-02-20T05:01:53.710Z,20.82
2019-02-20T05:06:55.507Z,24.05
2019-02-20T05:11:56.907Z,27.07
2019-02-20T05:16:58.358Z,25.27
2019-02-20T05:21:59.748Z,22.55
2019-02-20T05:27:01.184Z,27.07
2019-02-20T05:32:02.588Z,22.52
2019-02-20T05:37:03.959Z,27.60
2019-02-20T05:42:07.078Z,22.25
2019-02-20T05:47:08.819Z,29.25
2019-02-20T05:52:10.244Z,23.35
2019-02-20T05:57:11.679Z,22.77
2019-02-20T06:02:13.479Z,22.70
2019-02-20T06:07:15.151Z,26.80
2019-02-20T06:12:17.242Z,28.90
2019-02-20T06:17:18.636Z,24.67
2019-02-20T06:22:20.385Z,25.05
2019-02-20T06:27:21.825Z,30.65
2019-02-20T06:32:24.182Z,27.25
2019-02-20T06:37:25.815Z,23.52
2019-02-20T06:42:27.430Z,27.95
2019-02-20T06:47:30.563Z,48.10
2019-02-20T06:52:31.937Z,41.65
2019-02-20T06:57:33.459Z,60.65
2019-02-20T07:02:35.843Z,41.45
2019-02-20T07:07:43.177Z,41.05
2019-02-20T07:12:57.829Z,36.88
2019-02-20T07:18:08.163Z,77.80
2019-02-20T07:23:26.910Z,40.23
2019-02-20T07:29:02.550Z,46.28
2019-02-20T07:34:05.488Z,39.92
2019-02-20T07:39:07.045Z,88.35
2019-02-20T07:44:08.470Z,36.03
2019-02-20T07:49:10.002Z,37.17
2019-02-20T07:54:11.435Z,49.38
2019-02-20T07:59:12.872Z,38.42
2019-02-20T08:04:14.221Z,45.28
2019-02-20T08:09:15.734Z,62.38
2019-02-20T08:14:17.290Z,75.47
2019-02-20T08:19:18.820Z,149.27
2019-02-20T08:24:20.165Z,97.22
2019-02-20T08:29:21.570Z,52.75
2019-02-20T08:34:22.914Z,39.53
2019-02-20T08:39:26.322Z,37.13
2019-02-20T08:44:27.815Z,41.15
2019-02-20T08:49:30.735Z,36.25
2019-02-20T08:54:32.273Z,38.78
2019-02-20T08:59:33.604Z,37.33
2019-02-20T09:04:35.068Z,36.58
2019-02-20T09:09:36.405Z,37.13
2019-02-20T09:14:37.835Z,38.60
2019-02-20T09:19:39.509Z,39.33
2019-02-20T09:24:41.076Z,38.08
2019-02-20T09:29:42.504Z,37.88
2019-02-20T09:34:43.847Z,35.98
2019-02-20T09:39:45.296Z,33.33
2019-02-20T09:44:46.672Z,35.48
2019-02-20T09:49:48.439Z,36.68
2019-02-20T09:54:49.799Z,41.08
2019-02-20T09:59:51.339Z,30.23
2019-02-20T10:04:52.970Z,38.45
2019-02-20T10:09:54.319Z,34.18
2019-02-20T10:14:55.746Z,33.02
2019-02-20T10:19:57.105Z,36.38
2019-02-20T10:24:59.369Z,35.30
2019-02-20T10:30:05.135Z,33.05
2019-02-20T10:35:08.372Z,28.67
2019-02-20T10:40:11.162Z,31.57
2019-02-20T10:45:12.865Z,31.97
2019-02-20T10:50:14.488Z,26.15
2019-02-20T10:55:16.370Z,27.30
2019-02-20T11:00:24.197Z,27.35
2019-02-20T11:05:25.926Z,26.65
2019-02-20T11:10:27.551Z,29.57
2019-02-20T11:15:47.418Z,25.60
2019-02-20T11:20:48.765Z,26.48
2019-02-20T11:25:50.298Z,22.65
2019-02-20T11:30:51.833Z,24.35
2019-02-20T11:35:53.355Z,26.70
2019-02-20T11:40:54.959Z,20.27
2019-02-20T11:46:00.346Z,16.40
2019-02-20T11:51:02.061Z,20.88
2019-02-20T11:56:03.420Z,14.58
2019-02-20T12:01:05.145Z,15.65
2019-02-20T12:06:06.585Z,16.82
2019-02-20T12:11:08.096Z,13.78
2019-02-20T12:16:09.931Z,18.62
2019-02-20T12:21:11.239Z,17.42
2019-02-20T12:26:12.744Z,19.75
2019-02-20T12:31:14.170Z,18.40
2019-02-20T12:36:15.620Z,16.80
2019-02-20T12:41:17.054Z,22.00
2019-02-20T12:46:36.943Z,17.77
2019-02-20T12:51:38.481Z,12.78
2019-02-20T12:56:43.883Z,14.03
2019-02-20T13:01:43.205Z,16.10
2019-02-20T13:06:44.567Z,17.60
2019-02-20T13:11:46.753Z,16.35
2019-02-20T13:16:48.127Z,16.35
2019-02-20T13:21:49.619Z,13.13
2019-02-20T13:26:53.197Z,16.67
2019-02-20T13:31:54.432Z,13.72
2019-02-20T13:36:56.009Z,15.78
2019-02-20T13:41:57.407Z,15.13
2019-02-20T13:46:58.923Z,13.98
2019-02-20T13:52:00.561Z,15.53
2019-02-20T13:57:02.501Z,14.20
2019-02-20T14:02:04.487Z,12.80
2019-02-20T14:07:05.896Z,17.50
2019-02-20T14:12:07.446Z,15.83
2019-02-20T14:17:09.598Z,17.50
2019-02-20T14:22:10.963Z,19.20
2019-02-20T14:27:12.379Z,20.90
2019-02-20T14:32:13.765Z,16.93
2019-02-20T14:37:15.085Z,15.70
2019-02-20T14:42:16.522Z,17.25
2019-02-20T14:47:17.861Z,17.17
2019-02-20T14:52:19.200Z,21.02
2019-02-20T14:57:20.543Z,20.25
2019-02-20T15:02:21.985Z,14.35
2019-02-20T15:07:23.589Z,17.70
2019-02-20T15:12:25.533Z,18.77
2019-02-20T15:17:26.951Z,21.35
2019-02-20T15:22:28.719Z,20.82
2019-02-20T15:27:30.228Z,21.10
2019-02-20T15:32:31.637Z,20.82
2019-02-20T15:37:33.411Z,22.42
2019-02-20T15:42:35.099Z,21.05
2019-02-20T15:47:36.623Z,21.68
2019-02-20T15:52:39.725Z,19.05
2019-02-20T15:57:41.715Z,21.15
2019-02-20T16:02:43.152Z,14.73
2019-02-20T16:07:45.052Z,23.00
2019-02-20T16:12:46.929Z,15.48
2019-02-20T16:17:48.367Z,19.60
2019-02-20T16:22:49.964Z,18.20
2019-02-20T16:27:51.291Z,20.80
2019-02-20T16:32:52.693Z,17.80
2019-02-20T16:37:54.000Z,18.90
2019-02-20T16:42:55.504Z,18.85
2019-02-20T16:47:56.991Z,22.60
2019-02-20T16:52:58.596Z,19.23
2019-02-20T16:58:00.122Z,21.45
2019-02-20T17:03:01.689Z,21.05
2019-02-20T17:08:03.930Z,22.40
2019-02-20T17:13:05.445Z,22.32
2019-02-20T17:18:07.495Z,21.35
2019-02-20T17:23:09.024Z,19.98
2019-02-20T17:28:10.527Z,20.77
2019-02-20T17:33:12.233Z,18.45
2019-02-20T17:38:13.857Z,19.07
2019-02-20T17:43:15.400Z,25.35
2019-02-20T17:48:18.525Z,20.00
2019-02-20T17:53:20.348Z,25.02
2019-02-20T17:58:22.656Z,21.15
2019-02-20T18:03:24.079Z,22.00
2019-02-20T18:08:25.545Z,22.02
2019-02-20T18:13:26.927Z,20.88
2019-02-20T18:18:28.266Z,22.32
2019-02-20T18:23:29.848Z,42.62
2019-02-20T18:28:31.454Z,41.30
2019-02-20T18:33:32.883Z,50.95
2019-02-20T18:38:34.224Z,45.95
2019-02-20T18:43:35.584Z,27.27
2019-02-20T18:48:37.566Z,27.15
2019-02-20T18:53:39.111Z,22.45
2019-02-20T18:58:42.097Z,19.02
2019-02-20T19:03:43.651Z,23.83
2019-02-20T19:08:49.202Z,38.02
2019-02-20T19:14:34.829Z,46.92
2019-02-20T19:20:02.452Z,31.75
2019-02-20T19:25:44.337Z,23.55
2019-02-20T19:31:22.495Z,18.35
2019-02-20T19:36:54.073Z,26.77
2019-02-20T19:42:43.063Z,26.17
2019-02-20T19:48:02.797Z,19.00
2019-02-20T19:53:12.870Z,17.25
2019-02-20T19:58:31.940Z,18.45
2019-02-20T20:03:48.017Z,24.45
2019-02-20T20:09:04.216Z,21.80
2019-02-20T20:14:14.272Z,22.37
2019-02-20T20:19:33.005Z,27.37
2019-02-20T20:24:45.952Z,24.20
2019-02-20T20:30:17.325Z,30.90
2019-02-20T20:35:52.813Z,22.60
2019-02-20T20:41:02.707Z,23.98
2019-02-20T20:46:25.389Z,22.80
2019-02-20T20:52:01.613Z,78.55
2019-02-20T20:57:17.540Z,27.65
2019-02-20T21:02:30.331Z,21.85
2019-02-20T21:07:51.821Z,21.55
2019-02-20T21:13:23.470Z,43.75
2019-02-20T21:19:21.228Z,51.48
2019-02-20T21:24:38.847Z,78.30
2019-02-20T21:29:51.617Z,30.45
2019-02-20T21:35:23.649Z,59.55
2019-02-20T21:40:42.454Z,38.00
2019-02-20T21:46:15.341Z,28.30
2019-02-20T21:51:44.780Z,30.40
2019-02-20T21:56:57.407Z,34.60
2019-02-20T22:02:25.812Z,52.27
2019-02-20T22:08:01.298Z,50.98
2019-02-20T22:13:29.643Z,41.85
2019-02-20T22:18:51.371Z,53.87
2019-02-20T22:24:07.385Z,43.42
2019-02-20T22:29:32.203Z,70.42
2019-02-20T22:35:05.252Z,38.02
2019-02-20T22:40:47.122Z,36.55
2019-02-20T22:46:00.214Z,37.90
2019-02-20T22:51:22.065Z,34.20
2019-02-20T22:57:02.671Z,33.50
2019-02-20T23:02:54.085Z,40.08
2019-02-20T23:08:10.038Z,38.38
2019-02-20T23:13:29.114Z,37.53
2019-02-20T23:18:30.863Z,36.08
2019-02-20T23:23:32.595Z,41.75
2019-02-20T23:28:33.991Z,45.15
2019-02-20T23:33:35.430Z,44.60
2019-02-20T23:38:36.871Z,39.25
2019-02-20T23:43:39.373Z,41.33
2019-02-20T23:48:41.128Z,37.75
2019-02-20T23:53:42.773Z,40.55
2019-02-20T23:58:45.817Z,38.40
